Time;durP1;ratioP1;P1;durP2;ratioP2;P2;SDS_P1;SDS_P2;PMS_P1;PMS_P2;Temp;Humidity;BMP_temperature;BMP_pressure;BME280_temperature;BME280_humidity;BME280_pressure;Samples;Min_cycle;Max_cycle;Signal;HPM_P1;HPM_P2
2023/01/11 00:00:55;;;;;;;25.15;2.33;;;;;;;;;;5020749;28;20117;-73
2023/01/11 00:03:21;;;;;;;17.98;2.17;;;;;;;;;;5016419;28;20386;-73
2023/01/11 00:05:46;;;;;;;18.13;2.72;;;;;;;;;;5015151;28;20116;-74
2023/01/11 00:08:12;;;;;;;13.23;2.10;;;;;;;;;;5010853;28;20051;-74
2023/01/11 00:10:37;;;;;;;23.05;2.00;;;;;;;;;;5019975;28;20037;-73
2023/01/11 00:13:03;;;;;;;18.88;2.30;;;;;;;;;;5013567;28;20073;-73
2023/01/11 00:15:28;;;;;;;12.60;1.70;;;;;;;;;;5016630;28;20042;-73
2023/01/11 00:17:54;;;;;;;8.57;1.95;;;;;;;;;;5019520;28;20034;-73
2023/01/11 00:20:19;;;;;;;25.45;2.28;;;;;;;;;;5023133;28;20045;-73
2023/01/11 00:22:45;;;;;;;20.42;2.25;;;;;;;;;;5017017;28;20041;-74
2023/01/11 00:25:10;;;;;;;19.52;2.92;;;;;;;;;;5013166;28;20061;-74
2023/01/11 00:27:35;;;;;;;12.40;2.05;;;;;;;;;;5011805;28;20100;-73
2023/01/11 00:30:01;;;;;;;16.25;2.83;;;;;;;;;;5015024;28;20065;-73
2023/01/11 00:32:26;;;;;;;23.67;2.83;;;;;;;;;;5016232;28;20042;-73
2023/01/11 00:34:53;;;;;;;24.05;3.67;;;;;;;;;;5020530;28;20037;-74
2023/01/11 00:37:18;;;;;;;18.92;2.92;;;;;;;;;;5024584;28;20041;-73
2023/01/11 00:39:43;;;;;;;18.98;3.05;;;;;;;;;;5028574;28;20124;-78
2023/01/11 00:47:57;;;;;;;16.77;2.88;;;;;;;;;;5026826;28;20140;-75
2023/01/11 00:50:30;;;;;;;19.83;2.05;;;;;;;;;;5023952;28;20080;-73
2023/01/11 00:52:56;;;;;;;13.88;1.83;;;;;;;;;;5029363;28;20042;-73
2023/01/11 00:55:22;;;;;;;21.55;3.30;;;;;;;;;;5023636;28;20044;-74
2023/01/11 00:57:47;;;;;;;8.98;2.13;;;;;;;;;;5016652;28;20045;-73
2023/01/11 01:00:13;;;;;;;14.77;2.17;;;;;;;;;;5015684;28;20465;-74
2023/01/11 01:02:39;;;;;;;18.42;1.80;;;;;;;;;;5024156;28;20440;-73
2023/01/11 01:05:05;;;;;;;12.48;1.90;;;;;;;;;;5022203;28;20064;-73
2023/01/11 01:07:30;;;;;;;20.20;2.30;;;;;;;;;;5016098;28;20034;-74
2023/01/11 01:09:56;;;;;;;14.20;2.35;;;;;;;;;;5025645;28;20048;-73
2023/01/11 01:15:05;;;;;;;12.02;1.92;;;;;;;;;;5018980;28;20524;-75
2023/01/11 01:17:31;;;;;;;17.77;2.13;;;;;;;;;;5016552;28;20076;-74
2023/01/11 01:19:56;;;;;;;12.85;2.42;;;;;;;;;;5018129;28;20482;-73
2023/01/11 01:22:21;;;;;;;17.23;1.88;;;;;;;;;;5027951;28;20037;-74
2023/01/11 01:24:47;;;;;;;17.33;2.08;;;;;;;;;;5026655;28;20041;-74
2023/01/11 01:27:16;;;;;;;16.70;2.15;;;;;;;;;;5021823;28;20034;-75
2023/01/11 01:29:42;;;;;;;19.65;1.92;;;;;;;;;;5027320;28;20055;-74
2023/01/11 01:32:08;;;;;;;14.13;1.40;;;;;;;;;;5025177;28;20041;-73
2023/01/11 01:34:36;;;;;;;17.60;1.90;;;;;;;;;;5027738;28;20037;-73
2023/01/11 01:37:06;;;;;;;19.60;1.95;;;;;;;;;;5015333;28;20030;-74
2023/01/11 01:39:32;;;;;;;15.18;1.85;;;;;;;;;;5019011;28;20038;-73
2023/01/11 01:41:57;;;;;;;15.63;1.80;;;;;;;;;;5023410;28;20099;-73
2023/01/11 01:44:54;;;;;;;10.68;1.42;;;;;;;;;;5016923;28;20109;-73
2023/01/11 01:47:42;;;;;;;12.10;1.40;;;;;;;;;;5019275;28;20064;-74
2023/01/11 01:50:14;;;;;;;19.58;2.00;;;;;;;;;;5021552;28;20500;-73
2023/01/11 01:52:40;;;;;;;25.38;2.05;;;;;;;;;;5015478;28;20100;-73
2023/01/11 01:55:10;;;;;;;12.57;1.92;;;;;;;;;;5019962;28;20501;-73
2023/01/11 01:57:36;;;;;;;23.30;1.85;;;;;;;;;;5014137;28;20691;-73
2023/01/11 02:00:05;;;;;;;20.55;2.47;;;;;;;;;;5017501;28;20026;-73
2023/01/11 02:02:30;;;;;;;18.77;2.22;;;;;;;;;;5022782;28;20037;-73
2023/01/11 02:04:57;;;;;;;23.08;1.77;;;;;;;;;;5027577;28;20041;-78
2023/01/11 02:07:32;;;;;;;19.45;1.88;;;;;;;;;;5024552;28;20449;-73
2023/01/11 02:10:14;;;;;;;16.48;1.58;;;;;;;;;;5025474;28;20073;-73
2023/01/11 02:12:44;;;;;;;24.50;1.80;;;;;;;;;;5018884;28;20041;-73
2023/01/11 02:15:10;;;;;;;17.08;1.60;;;;;;;;;;5019105;28;20485;-73
2023/01/11 02:17:36;;;;;;;8.90;1.48;;;;;;;;;;5038190;28;20497;-73
2023/01/11 02:20:07;;;;;;;21.15;1.58;;;;;;;;;;5023574;28;20051;-73
2023/01/11 02:23:20;;;;;;;12.45;1.85;;;;;;;;;;5015435;28;20041;-72
2023/01/11 02:25:48;;;;;;;13.13;1.38;;;;;;;;;;5004376;28;20494;-74
2023/01/11 02:28:27;;;;;;;13.75;1.80;;;;;;;;;;5013674;28;20034;-73
2023/01/11 02:31:01;;;;;;;21.85;2.25;;;;;;;;;;5016960;28;20033;-73
2023/01/11 02:33:47;;;;;;;22.23;2.35;;;;;;;;;;5017221;28;20103;-73
2023/01/11 02:36:43;;;;;;;13.15;1.30;;;;;;;;;;5023435;28;20124;-76
2023/01/11 02:39:17;;;;;;;13.18;1.75;;;;;;;;;;5015652;28;20034;-74
2023/01/11 02:45:13;;;;;;;21.00;1.77;;;;;;;;;;5002927;28;20049;-73
2023/01/11 02:47:41;;;;;;;20.70;1.65;;;;;;;;;;5015449;28;20041;-73
2023/01/11 02:50:10;;;;;;;21.10;1.55;;;;;;;;;;5022966;28;20061;-73
2023/01/11 02:52:43;;;;;;;18.60;1.75;;;;;;;;;;5020162;28;20075;-73
2023/01/11 02:55:11;;;;;;;22.92;1.98;;;;;;;;;;5019547;28;20042;-73
2023/01/11 02:57:38;;;;;;;14.35;1.85;;;;;;;;;;5019983;28;20402;-73
2023/01/11 03:00:05;;;;;;;13.50;1.50;;;;;;;;;;5018781;28;20029;-72
2023/01/11 03:02:30;;;;;;;11.25;1.48;;;;;;;;;;5023317;28;20040;-72
2023/01/11 03:04:56;;;;;;;11.63;1.42;;;;;;;;;;5019414;28;20385;-73
2023/01/11 03:07:31;;;;;;;15.43;1.60;;;;;;;;;;5020711;28;20096;-77
2023/01/11 03:10:07;;;;;;;23.38;1.38;;;;;;;;;;5013281;28;20436;-73
2023/01/11 03:12:58;;;;;;;17.00;1.60;;;;;;;;;;5021484;28;20034;-77
2023/01/11 03:16:08;;;;;;;21.63;1.98;;;;;;;;;;5014158;28;20084;-73
2023/01/11 03:18:53;;;;;;;9.20;1.10;;;;;;;;;;4996397;28;20040;-73
2023/01/11 03:21:31;;;;;;;12.93;1.52;;;;;;;;;;5014859;28;20116;-73
2023/01/11 03:24:17;;;;;;;16.50;1.70;;;;;;;;;;5026224;28;20381;-73
2023/01/11 03:27:24;;;;;;;13.65;1.92;;;;;;;;;;5017241;28;20038;-73
2023/01/11 03:29:51;;;;;;;20.70;2.08;;;;;;;;;;4991551;28;20067;-73
2023/01/11 03:32:22;;;;;;;16.25;1.40;;;;;;;;;;5006362;28;20452;-74
2023/01/11 03:34:50;;;;;;;24.05;2.47;;;;;;;;;;5024033;28;20113;-74
2023/01/11 03:37:30;;;;;;;17.88;1.92;;;;;;;;;;5021843;28;20056;-74
2023/01/11 03:40:13;;;;;;;8.13;1.85;;;;;;;;;;5019697;28;20029;-73
2023/01/11 03:43:09;;;;;;;15.90;1.80;;;;;;;;;;5016461;28;20041;-73
2023/01/11 03:45:30;;;;;;;12.43;1.15;;;;;;;;;;5017360;28;20049;-73
2023/01/11 03:47:56;;;;;;;16.40;1.67;;;;;;;;;;5010680;28;20481;-73
2023/01/11 03:50:22;;;;;;;23.50;2.10;;;;;;;;;;5015832;28;20053;-77
2023/01/11 03:52:48;;;;;;;26.23;2.03;;;;;;;;;;5010414;28;20474;-74
2023/01/11 03:55:15;;;;;;;15.07;1.60;;;;;;;;;;5023350;28;20395;-73
2023/01/11 03:57:46;;;;;;;29.05;2.70;;;;;;;;;;5013069;28;20433;-74
2023/01/11 04:00:11;;;;;;;33.15;2.58;;;;;;;;;;5038228;28;20046;-73
2023/01/11 04:02:40;;;;;;;36.70;2.78;;;;;;;;;;5021198;28;20038;-73
2023/01/11 04:05:07;;;;;;;18.52;1.88;;;;;;;;;;5017889;28;20080;-73
2023/01/11 04:07:32;;;;;;;26.58;2.90;;;;;;;;;;5003451;28;20065;-74
2023/01/11 04:09:58;;;;;;;32.00;2.95;;;;;;;;;;5022687;28;20029;-73
2023/01/11 04:12:24;;;;;;;24.85;2.53;;;;;;;;;;5019091;28;20547;-73
2023/01/11 04:14:49;;;;;;;21.92;3.22;;;;;;;;;;5031156;28;20032;-73
2023/01/11 04:17:15;;;;;;;30.48;2.97;;;;;;;;;;5030823;28;20025;-73
2023/01/11 04:19:40;;;;;;;24.23;2.88;;;;;;;;;;5023654;28;20042;-73
2023/01/11 04:22:06;;;;;;;31.23;2.55;;;;;;;;;;5031996;28;20478;-73
2023/01/11 04:24:31;;;;;;;30.33;2.35;;;;;;;;;;5024037;28;20389;-73
2023/01/11 04:26:56;;;;;;;25.60;2.20;;;;;;;;;;5026810;28;20033;-73
2023/01/11 04:29:22;;;;;;;14.32;2.00;;;;;;;;;;5022831;28;20469;-73
2023/01/11 04:31:47;;;;;;;20.85;2.05;;;;;;;;;;5018489;28;20037;-73
2023/01/11 04:34:13;;;;;;;20.33;2.40;;;;;;;;;;5023641;28;20068;-74
2023/01/11 04:36:38;;;;;;;16.95;1.77;;;;;;;;;;5021192;28;20118;-73
2023/01/11 04:39:05;;;;;;;32.00;3.45;;;;;;;;;;5015696;28;20045;-73
2023/01/11 04:44:14;;;;;;;18.92;2.20;;;;;;;;;;5013447;28;20033;-73
2023/01/11 04:46:40;;;;;;;17.10;1.38;;;;;;;;;;5023035;28;20046;-73
2023/01/11 04:49:05;;;;;;;21.88;2.20;;;;;;;;;;5026262;28;20068;-74
2023/01/11 04:51:30;;;;;;;18.92;1.73;;;;;;;;;;5023652;28;20433;-73
2023/01/11 04:53:56;;;;;;;20.73;2.05;;;;;;;;;;5019775;28;20048;-73
2023/01/11 04:56:21;;;;;;;16.35;1.95;;;;;;;;;;5017957;28;20381;-73
2023/01/11 04:58:47;;;;;;;19.02;1.77;;;;;;;;;;5017826;28;20478;-73
2023/01/11 05:01:17;;;;;;;16.30;1.30;;;;;;;;;;5015255;28;20076;-73
2023/01/11 05:03:44;;;;;;;17.08;1.45;;;;;;;;;;5021524;28;20117;-72
2023/01/11 05:06:09;;;;;;;9.98;1.30;;;;;;;;;;5019561;28;20025;-73
2023/01/11 05:08:35;;;;;;;17.85;1.92;;;;;;;;;;5019209;28;20681;-73
2023/01/11 05:11:02;;;;;;;12.90;1.65;;;;;;;;;;5024500;28;20117;-73
2023/01/11 05:13:40;;;;;;;10.80;2.08;;;;;;;;;;5016683;28;20033;-73
2023/01/11 05:16:35;;;;;;;15.10;1.60;;;;;;;;;;5021992;28;20394;-74
2023/01/11 05:19:01;;;;;;;10.27;3.03;;;;;;;;;;5015892;28;20044;-73
2023/01/11 05:21:30;;;;;;;9.77;1.15;;;;;;;;;;5029811;28;20132;-73
2023/01/11 05:23:57;;;;;;;15.18;2.10;;;;;;;;;;5022501;28;20025;-73
2023/01/11 05:26:28;;;;;;;17.52;2.20;;;;;;;;;;5027868;28;20095;-73
2023/01/11 05:28:55;;;;;;;15.27;2.15;;;;;;;;;;5023340;28;20047;-74
2023/01/11 05:31:21;;;;;;;26.05;2.30;;;;;;;;;;5021559;28;20116;-73
2023/01/11 05:33:46;;;;;;;24.25;2.28;;;;;;;;;;5015355;28;20426;-73
2023/01/11 05:36:14;;;;;;;16.13;1.92;;;;;;;;;;5025823;28;20034;-73
2023/01/11 05:38:40;;;;;;;22.88;1.67;;;;;;;;;;5021609;28;20113;-73
2023/01/11 05:41:07;;;;;;;17.92;2.00;;;;;;;;;;5023807;28;20444;-73
2023/01/11 05:45:27;;;;;;;23.27;2.50;;;;;;;;;;5025716;28;20041;-73
2023/01/11 05:46:18;;;;;;;18.48;1.35;;;;;;;;;;5020511;28;20504;-74
2023/01/11 05:48:44;;;;;;;18.20;2.45;;;;;;;;;;5024675;28;20037;-73
2023/01/11 05:51:09;;;;;;;21.50;2.55;;;;;;;;;;5025923;28;20076;-73
2023/01/11 05:53:35;;;;;;;14.27;2.55;;;;;;;;;;5019276;28;20033;-73
2023/01/11 05:56:00;;;;;;;22.73;2.40;;;;;;;;;;5022935;28;20038;-73
2023/01/11 05:58:25;;;;;;;13.68;1.50;;;;;;;;;;5020762;28;20071;-74
2023/01/11 06:00:53;;;;;;;25.08;2.65;;;;;;;;;;5023986;28;20533;-73
2023/01/11 06:03:19;;;;;;;18.67;2.95;;;;;;;;;;5018252;28;20431;-74
2023/01/11 06:05:44;;;;;;;17.20;1.77;;;;;;;;;;5013649;28;20493;-73
2023/01/11 06:08:10;;;;;;;21.65;2.70;;;;;;;;;;5027290;28;20033;-73
2023/01/11 06:10:35;;;;;;;13.32;1.70;;;;;;;;;;5025847;28;20041;-73
2023/01/11 06:15:45;;;;;;;16.50;1.45;;;;;;;;;;5024804;28;20393;-73
2023/01/11 06:18:10;;;;;;;15.70;1.23;;;;;;;;;;5021209;28;20049;-74
2023/01/11 06:20:35;;;;;;;10.77;1.60;;;;;;;;;;5018686;28;20440;-72
2023/01/11 06:23:01;;;;;;;11.10;1.58;;;;;;;;;;5025520;28;20489;-74
2023/01/11 06:25:27;;;;;;;17.98;1.83;;;;;;;;;;5025846;28;20045;-73
2023/01/11 06:27:52;;;;;;;25.25;2.42;;;;;;;;;;5024670;28;20025;-73
2023/01/11 06:30:19;;;;;;;10.38;1.80;;;;;;;;;;5021011;28;20036;-74
2023/01/11 06:32:44;;;;;;;23.27;2.45;;;;;;;;;;5024866;28;20520;-78
2023/01/11 06:35:10;;;;;;;18.48;2.88;;;;;;;;;;5022520;28;20029;-72
2023/01/11 06:37:35;;;;;;;10.82;1.60;;;;;;;;;;5017933;28;21011;-73
2023/01/11 06:40:01;;;;;;;17.20;1.92;;;;;;;;;;5022523;28;20444;-73
2023/01/11 06:42:26;;;;;;;16.35;1.70;;;;;;;;;;5016003;28;20045;-73
2023/01/11 06:44:52;;;;;;;16.98;1.95;;;;;;;;;;5017087;28;20104;-73
2023/01/11 06:47:17;;;;;;;19.38;1.58;;;;;;;;;;5024026;28;20113;-73
2023/01/11 06:49:42;;;;;;;13.57;1.65;;;;;;;;;;5023150;28;20112;-73
2023/01/11 06:52:08;;;;;;;14.38;2.03;;;;;;;;;;5018567;28;20052;-73
2023/01/11 06:54:33;;;;;;;24.58;1.92;;;;;;;;;;5016648;28;20042;-73
2023/01/11 06:56:58;;;;;;;5.35;1.67;;;;;;;;;;5016001;28;20037;-73
2023/01/11 06:59:24;;;;;;;13.32;2.10;;;;;;;;;;5027271;28;20033;-73
2023/01/11 07:01:49;;;;;;;25.02;2.00;;;;;;;;;;5022153;28;20033;-73
2023/01/11 07:04:17;;;;;;;23.17;2.35;;;;;;;;;;5026097;28;20354;-74
2023/01/11 07:06:43;;;;;;;19.98;1.67;;;;;;;;;;5018732;28;20025;-73
2023/01/11 07:09:08;;;;;;;32.55;2.55;;;;;;;;;;5023803;28;20093;-73
2023/01/11 07:11:37;;;;;;;24.58;2.00;;;;;;;;;;5016654;28;20077;-78
2023/01/11 07:14:03;;;;;;;15.43;2.85;;;;;;;;;;5005456;28;20029;-73
2023/01/11 07:16:29;;;;;;;40.83;12.65;;;;;;;;;;5020442;28;20034;-72
2023/01/11 07:18:54;;;;;;;54.45;17.13;;;;;;;;;;5015017;28;20062;-74
2023/01/11 07:21:19;;;;;;;45.83;12.57;;;;;;;;;;5019168;28;20029;-73
2023/01/11 07:23:47;;;;;;;55.72;14.15;;;;;;;;;;5015879;28;20034;-73
2023/01/11 07:26:13;;;;;;;24.15;5.57;;;;;;;;;;5023134;28;20079;-72
2023/01/11 07:28:39;;;;;;;26.23;4.95;;;;;;;;;;5013150;28;20029;-72
2023/01/11 07:31:04;;;;;;;22.10;3.17;;;;;;;;;;5023325;28;20052;-72
2023/01/11 07:33:29;;;;;;;30.27;4.32;;;;;;;;;;5041892;28;20046;-73
2023/01/11 07:35:57;;;;;;;21.17;2.85;;;;;;;;;;5011356;28;20120;-72
2023/01/11 07:38:22;;;;;;;15.70;3.30;;;;;;;;;;5017967;28;20042;-73
2023/01/11 07:40:47;;;;;;;16.15;2.47;;;;;;;;;;5017906;28;20394;-73
2023/01/11 07:43:13;;;;;;;25.73;4.00;;;;;;;;;;5023620;28;20477;-73
2023/01/11 07:45:42;;;;;;;15.98;2.70;;;;;;;;;;5016194;28;20456;-73
2023/01/11 07:48:09;;;;;;;21.88;2.58;;;;;;;;;;5014813;28;20113;-73
2023/01/11 07:50:38;;;;;;;22.75;2.45;;;;;;;;;;5024783;28;20046;-73
2023/01/11 07:53:04;;;;;;;20.35;2.97;;;;;;;;;;5015168;28;20041;-73
2023/01/11 07:55:29;;;;;;;24.30;3.22;;;;;;;;;;5017279;28;20043;-73
2023/01/11 07:57:56;;;;;;;21.58;3.05;;;;;;;;;;5014232;28;20025;-73
2023/01/11 08:00:22;;;;;;;18.10;3.10;;;;;;;;;;5033844;28;20489;-74
2023/01/11 08:02:51;;;;;;;25.98;3.10;;;;;;;;;;5012038;28;20108;-74
2023/01/11 08:05:19;;;;;;;19.80;2.50;;;;;;;;;;5016611;28;20124;-73
2023/01/11 08:07:45;;;;;;;21.63;3.30;;;;;;;;;;5013409;28;20042;-73
2023/01/11 08:10:10;;;;;;;22.63;2.47;;;;;;;;;;5023326;28;20075;-73
2023/01/11 08:15:31;;;;;;;22.50;2.53;;;;;;;;;;5012559;28;20108;-73
2023/01/11 08:17:57;;;;;;;19.13;2.35;;;;;;;;;;5020915;28;20060;-73
2023/01/11 08:20:23;;;;;;;21.10;2.15;;;;;;;;;;5013623;28;20425;-73
2023/01/11 08:22:48;;;;;;;19.20;2.75;;;;;;;;;;5018996;28;20073;-73
2023/01/11 08:25:14;;;;;;;26.48;3.08;;;;;;;;;;5014932;28;20072;-73
2023/01/11 08:27:40;;;;;;;14.95;2.20;;;;;;;;;;5016535;28;20041;-73
2023/01/11 08:30:06;;;;;;;26.52;2.70;;;;;;;;;;5025649;28;20029;-73
2023/01/11 08:32:31;;;;;;;31.75;2.70;;;;;;;;;;5025056;28;20033;-72
2023/01/11 08:34:56;;;;;;;19.67;3.05;;;;;;;;;;5027945;28;20045;-72
2023/01/11 08:37:22;;;;;;;20.13;3.20;;;;;;;;;;5012686;28;20061;-76
2023/01/11 08:39:47;;;;;;;17.45;2.40;;;;;;;;;;5015551;28;20029;-73
2023/01/11 08:42:13;;;;;;;22.02;2.13;;;;;;;;;;5012308;28;20386;-73
2023/01/11 08:44:38;;;;;;;22.90;2.35;;;;;;;;;;5010205;28;20060;-73
2023/01/11 08:47:03;;;;;;;19.25;2.22;;;;;;;;;;5014629;28;20026;-76
2023/01/11 08:49:29;;;;;;;7.13;1.67;;;;;;;;;;5020160;28;20061;-72
2023/01/11 08:51:55;;;;;;;16.48;2.10;;;;;;;;;;5014357;28;20030;-77
2023/01/11 08:54:20;;;;;;;12.38;1.77;;;;;;;;;;5020566;28;20042;-74
2023/01/11 08:56:46;;;;;;;21.17;2.70;;;;;;;;;;5031035;28;20037;-73
2023/01/11 08:59:11;;;;;;;17.60;2.53;;;;;;;;;;5014790;28;20519;-75
2023/01/11 09:01:37;;;;;;;14.85;2.17;;;;;;;;;;5031861;28;20034;-73
2023/01/11 09:04:02;;;;;;;29.35;1.92;;;;;;;;;;5027909;28;20542;-75
2023/01/11 09:06:28;;;;;;;18.60;2.88;;;;;;;;;;5020730;28;20048;-73
2023/01/11 09:08:53;;;;;;;24.38;3.00;;;;;;;;;;5021375;28;20481;-74
2023/01/11 09:14:02;;;;;;;16.48;2.53;;;;;;;;;;5014294;28;20033;-77
2023/01/11 09:16:28;;;;;;;14.98;2.45;;;;;;;;;;5012828;28;20045;-76
2023/01/11 09:18:54;;;;;;;20.33;2.53;;;;;;;;;;5011643;28;20033;-75
2023/01/11 09:21:20;;;;;;;20.98;2.65;;;;;;;;;;5011283;28;20053;-74
2023/01/11 09:23:45;;;;;;;10.93;2.47;;;;;;;;;;5015137;28;20485;-74
2023/01/11 09:26:11;;;;;;;22.92;4.03;;;;;;;;;;5024070;28;20075;-77
2023/01/11 09:28:37;;;;;;;15.20;2.53;;;;;;;;;;5020698;28;20164;-75
2023/01/11 09:31:02;;;;;;;20.58;2.72;;;;;;;;;;5012837;28;20390;-74
2023/01/11 09:33:28;;;;;;;8.18;1.90;;;;;;;;;;5023085;28;20053;-75
2023/01/11 09:35:56;;;;;;;7.85;1.25;;;;;;;;;;5014020;28;20041;-74
2023/01/11 09:38:25;;;;;;;17.65;1.63;;;;;;;;;;5013957;28;20081;-74
2023/01/11 09:41:26;;;;;;;10.20;2.17;;;;;;;;;;5014442;28;20041;-73
2023/01/11 09:44:01;;;;;;;18.48;2.28;;;;;;;;;;5013066;28;20061;-74
2023/01/11 09:46:27;;;;;;;14.63;1.90;;;;;;;;;;5033935;28;20030;-74
2023/01/11 09:48:59;;;;;;;11.63;2.28;;;;;;;;;;5036026;28;20483;-77
2023/01/11 09:51:32;;;;;;;10.75;1.85;;;;;;;;;;5026617;28;20617;-77
2023/01/11 09:54:00;;;;;;;15.77;2.25;;;;;;;;;;5026355;28;20443;-74
2023/01/11 09:56:31;;;;;;;13.48;1.92;;;;;;;;;;5019329;28;20130;-73
2023/01/11 09:59:06;;;;;;;8.13;1.38;;;;;;;;;;5014986;28;20568;-74
2023/01/11 10:02:00;;;;;;;10.82;2.00;;;;;;;;;;5010835;28;20128;-74
2023/01/11 10:04:41;;;;;;;8.77;1.88;;;;;;;;;;5004677;28;20056;-74
2023/01/11 10:07:28;;;;;;;11.82;2.35;;;;;;;;;;5020459;28;20033;-75
2023/01/11 10:10:15;;;;;;;13.80;2.20;;;;;;;;;;5024670;28;20030;-74
2023/01/11 10:13:09;;;;;;;13.43;2.42;;;;;;;;;;5016866;28;20048;-75
2023/01/11 10:15:53;;;;;;;12.05;2.35;;;;;;;;;;5018043;28;20037;-74
2023/01/11 10:18:44;;;;;;;11.40;2.25;;;;;;;;;;5007741;28;20060;-75
2023/01/11 10:21:14;;;;;;;14.23;1.77;;;;;;;;;;5013389;28;20042;-74
2023/01/11 10:23:54;;;;;;;10.57;2.00;;;;;;;;;;5019167;28;20045;-74
2023/01/11 10:26:27;;;;;;;12.27;3.10;;;;;;;;;;5019553;28;20552;-75
2023/01/11 10:32:38;;;;;;;16.33;2.85;;;;;;;;;;5018566;28;20046;-74
2023/01/11 10:38:56;;;;;;;15.13;2.42;;;;;;;;;;5007932;28;20084;-74
2023/01/11 10:41:36;;;;;;;21.10;2.20;;;;;;;;;;5012956;28;20033;-77
2023/01/11 10:44:08;;;;;;;12.75;3.03;;;;;;;;;;5019108;28;20052;-77
2023/01/11 10:46:38;;;;;;;20.27;3.13;;;;;;;;;;5008031;28;20048;-76
2023/01/11 10:49:27;;;;;;;18.80;3.97;;;;;;;;;;5035290;28;20066;-74
2023/01/11 10:51:54;;;;;;;26.42;2.60;;;;;;;;;;5017612;28;20496;-74
2023/01/11 10:54:23;;;;;;;20.45;3.33;;;;;;;;;;5006580;28;20042;-76
2023/01/11 10:56:54;;;;;;;25.40;4.93;;;;;;;;;;5040618;28;20060;-75
2023/01/11 10:59:45;;;;;;;20.75;2.45;;;;;;;;;;5008731;28;20045;-75
2023/01/11 11:02:35;;;;;;;28.48;3.42;;;;;;;;;;5013812;28;20513;-75
2023/01/11 11:05:21;;;;;;;15.80;2.42;;;;;;;;;;5012511;28;20041;-74
2023/01/11 11:08:11;;;;;;;9.02;2.00;;;;;;;;;;4995970;28;20049;-74
2023/01/11 11:10:45;;;;;;;19.80;2.80;;;;;;;;;;5008436;28;20044;-74
2023/01/11 11:13:17;;;;;;;11.73;2.33;;;;;;;;;;5016944;28;20060;-75
2023/01/11 11:16:00;;;;;;;8.90;2.17;;;;;;;;;;5017311;28;20033;-74
2023/01/11 11:18:25;;;;;;;10.60;1.27;;;;;;;;;;5017753;28;20046;-75
2023/01/11 11:20:50;;;;;;;10.63;1.40;;;;;;;;;;5010950;28;20040;-74
2023/01/11 11:23:20;;;;;;;6.15;1.45;;;;;;;;;;5018889;28;20061;-74
2023/01/11 11:25:54;;;;;;;16.48;1.73;;;;;;;;;;5004155;28;20037;-74
2023/01/11 11:28:26;;;;;;;7.20;1.15;;;;;;;;;;5016348;28;20046;-74
2023/01/11 11:30:56;;;;;;;11.90;1.35;;;;;;;;;;5026948;28;20653;-77
2023/01/11 11:33:38;;;;;;;10.57;1.55;;;;;;;;;;5017842;28;20401;-74
2023/01/11 11:36:11;;;;;;;17.73;2.28;;;;;;;;;;5020575;28;20072;-74
2023/01/11 11:38:39;;;;;;;14.75;3.15;;;;;;;;;;5009492;28;20053;-74
2023/01/11 11:41:10;;;;;;;10.48;1.95;;;;;;;;;;5010694;28;20049;-73
2023/01/11 11:43:37;;;;;;;11.05;2.28;;;;;;;;;;5011861;28;20764;-74
2023/01/11 11:46:09;;;;;;;7.57;1.27;;;;;;;;;;5021301;28;20530;-74
2023/01/11 11:48:34;;;;;;;10.20;1.23;;;;;;;;;;5009169;28;20053;-74
2023/01/11 11:51:02;;;;;;;11.95;2.00;;;;;;;;;;5017152;28;20045;-74
2023/01/11 11:53:44;;;;;;;14.70;3.10;;;;;;;;;;5015993;28;20064;-74
2023/01/11 11:56:19;;;;;;;11.98;3.00;;;;;;;;;;5011742;28;20040;-74
2023/01/11 11:58:44;;;;;;;17.05;1.85;;;;;;;;;;5013173;28;20393;-74
2023/01/11 12:01:23;;;;;;;18.77;2.50;;;;;;;;;;5013530;28;20049;-73
2023/01/11 12:03:51;;;;;;;9.10;1.92;;;;;;;;;;5010203;28;20033;-74
2023/01/11 12:06:25;;;;;;;11.45;2.10;;;;;;;;;;5009552;28;20033;-75
2023/01/11 12:08:51;;;;;;;13.55;1.52;;;;;;;;;;5017128;28;20052;-74
2023/01/11 12:11:21;;;;;;;10.20;1.98;;;;;;;;;;5015784;28;20045;-75
2023/01/11 12:14:18;;;;;;;13.15;1.65;;;;;;;;;;5005826;28;20437;-74
2023/01/11 12:16:44;;;;;;;6.22;1.33;;;;;;;;;;5017920;28;20111;-73
2023/01/11 12:19:48;;;;;;;8.02;1.63;;;;;;;;;;5021505;28;20048;-74
2023/01/11 12:22:21;;;;;;;15.57;1.73;;;;;;;;;;5014549;28;20129;-75
2023/01/11 12:25:01;;;;;;;12.30;1.93;;;;;;;;;;5015145;28;20120;-74
2023/01/11 12:27:39;;;;;;;4.15;1.27;;;;;;;;;;5010046;28;20081;-73
2023/01/11 12:30:20;;;;;;;9.77;1.50;;;;;;;;;;5015413;28;20480;-73
2023/01/11 12:32:49;;;;;;;14.88;2.40;;;;;;;;;;5015357;28;20045;-74
2023/01/11 12:35:36;;;;;;;7.22;1.40;;;;;;;;;;5015951;28;20041;-74
2023/01/11 12:38:35;;;;;;;10.32;1.65;;;;;;;;;;5014753;28;20052;-73
2023/01/11 12:41:19;;;;;;;6.45;1.33;;;;;;;;;;5010646;28;20177;-77
2023/01/11 12:44:04;;;;;;;13.30;1.95;;;;;;;;;;5014399;28;20053;-74
2023/01/11 12:47:03;;;;;;;8.15;1.48;;;;;;;;;;5011070;28;20112;-74
2023/01/11 12:49:34;;;;;;;9.57;1.50;;;;;;;;;;5026922;28;20053;-74
2023/01/11 12:52:14;;;;;;;16.15;2.40;;;;;;;;;;5015330;28;20035;-78
2023/01/11 12:55:00;;;;;;;8.43;1.60;;;;;;;;;;5011549;28;20038;-74
2023/01/11 12:57:25;;;;;;;9.35;2.28;;;;;;;;;;5020696;28;20056;-74
2023/01/11 13:00:12;;;;;;;7.40;1.30;;;;;;;;;;5024466;28;20088;-74
2023/01/11 13:03:05;;;;;;;14.52;1.73;;;;;;;;;;5010205;28;20497;-74
2023/01/11 13:05:56;;;;;;;10.38;1.35;;;;;;;;;;5002155;28;20400;-75
2023/01/11 13:09:02;;;;;;;7.40;1.40;;;;;;;;;;5012572;28;20057;-74
2023/01/11 13:11:49;;;;;;;7.82;1.50;;;;;;;;;;5010920;28;20045;-74
2023/01/11 13:14:45;;;;;;;8.00;1.48;;;;;;;;;;5015171;28;20029;-76
2023/01/11 13:17:48;;;;;;;9.65;1.67;;;;;;;;;;5017818;28;20045;-74
2023/01/11 13:20:16;;;;;;;3.15;1.02;;;;;;;;;;5001428;28;20076;-75
2023/01/11 13:22:51;;;;;;;5.55;1.27;;;;;;;;;;5024175;28;20068;-74
2023/01/11 13:25:23;;;;;;;7.85;1.20;;;;;;;;;;5015442;28;20121;-74
2023/01/11 13:27:49;;;;;;;3.70;1.23;;;;;;;;;;5015895;28;21142;-74
2023/01/11 13:30:16;;;;;;;7.25;2.05;;;;;;;;;;5021295;28;20029;-74
2023/01/11 13:32:54;;;;;;;8.27;1.15;;;;;;;;;;5016674;28;20044;-75
2023/01/11 13:35:29;;;;;;;8.48;1.50;;;;;;;;;;5021651;28;20034;-74
2023/01/11 13:38:00;;;;;;;12.20;2.78;;;;;;;;;;5015643;28;20036;-74
2023/01/11 13:40:30;;;;;;;8.25;3.13;;;;;;;;;;5011237;28;20034;-74
2023/01/11 13:42:58;;;;;;;7.70;2.97;;;;;;;;;;5017108;28;20124;-74
2023/01/11 13:45:28;;;;;;;12.80;2.90;;;;;;;;;;5017146;28;20053;-75
2023/01/11 13:47:55;;;;;;;7.90;2.80;;;;;;;;;;5028979;28;20484;-75
2023/01/11 13:50:25;;;;;;;8.63;1.67;;;;;;;;;;5027936;28;20056;-74
2023/01/11 13:53:00;;;;;;;4.40;1.55;;;;;;;;;;5016800;28;20039;-74
2023/01/11 13:55:47;;;;;;;6.45;1.27;;;;;;;;;;5004419;28;20112;-74
2023/01/11 13:58:35;;;;;;;4.00;1.23;;;;;;;;;;5015476;28;20493;-75
2023/01/11 14:01:07;;;;;;;8.40;1.38;;;;;;;;;;5012264;28;20087;-74
2023/01/11 14:03:47;;;;;;;5.07;1.00;;;;;;;;;;5012303;28;20049;-75
2023/01/11 14:06:28;;;;;;;5.38;1.17;;;;;;;;;;5014452;28;20037;-75
2023/01/11 14:09:34;;;;;;;4.53;1.05;;;;;;;;;;5015175;28;20052;-78
2023/01/11 14:12:18;;;;;;;8.23;1.30;;;;;;;;;;5018585;28;20505;-74
2023/01/11 14:14:47;;;;;;;8.10;1.30;;;;;;;;;;5013521;28;20048;-74
2023/01/11 14:17:31;;;;;;;5.70;1.00;;;;;;;;;;5008323;28;20124;-74
2023/01/11 14:20:06;;;;;;;3.28;1.10;;;;;;;;;;5024633;28;20045;-74
2023/01/11 14:22:53;;;;;;;4.03;1.25;;;;;;;;;;5014264;28;20042;-77
2023/01/11 14:25:25;;;;;;;5.90;1.70;;;;;;;;;;5009621;28;20048;-75
2023/01/11 14:28:04;;;;;;;2.85;0.90;;;;;;;;;;5013094;28;20050;-74
2023/01/11 14:30:29;;;;;;;7.05;1.52;;;;;;;;;;5017523;28;20506;-74
2023/01/11 14:33:14;;;;;;;11.35;2.17;;;;;;;;;;5016112;28;20061;-74
2023/01/11 14:35:58;;;;;;;8.35;1.77;;;;;;;;;;5013766;28;20076;-75
2023/01/11 14:38:26;;;;;;;6.07;1.60;;;;;;;;;;5027872;28;20041;-74
2023/01/11 14:41:10;;;;;;;12.13;1.40;;;;;;;;;;5016149;28;20508;-74
2023/01/11 14:44:03;;;;;;;13.98;1.70;;;;;;;;;;5025252;28;20044;-74
2023/01/11 14:46:32;;;;;;;8.68;1.90;;;;;;;;;;5012618;28;20041;-75
2023/01/11 14:49:22;;;;;;;10.30;2.00;;;;;;;;;;5025764;28;20042;-74
2023/01/11 14:52:21;;;;;;;17.13;2.53;;;;;;;;;;5012137;28;20489;-78
2023/01/11 14:54:48;;;;;;;15.65;2.80;;;;;;;;;;5001636;28;20081;-74
2023/01/11 14:57:39;;;;;;;17.30;2.35;;;;;;;;;;5016298;28;20037;-74
2023/01/11 15:00:17;;;;;;;23.10;3.03;;;;;;;;;;5016682;28;20041;-74
2023/01/11 15:02:42;;;;;;;14.18;2.60;;;;;;;;;;5019972;28;20042;-74
2023/01/11 15:05:08;;;;;;;19.23;2.88;;;;;;;;;;5022140;28;20068;-74
2023/01/11 15:07:36;;;;;;;21.90;2.53;;;;;;;;;;5012068;28;20049;-75
2023/01/11 15:10:07;;;;;;;11.43;2.50;;;;;;;;;;5013892;28;20029;-75
2023/01/11 15:12:39;;;;;;;21.33;2.50;;;;;;;;;;5015538;28;20096;-75
2023/01/11 15:15:19;;;;;;;16.75;3.13;;;;;;;;;;5021372;28;20461;-75
2023/01/11 15:20:29;;;;;;;24.70;3.00;;;;;;;;;;5020261;28;20080;-74
2023/01/11 15:23:00;;;;;;;21.35;3.63;;;;;;;;;;5019736;28;20104;-74
2023/01/11 15:25:30;;;;;;;21.92;3.00;;;;;;;;;;5016545;28;20037;-74
2023/01/11 15:28:04;;;;;;;15.70;3.03;;;;;;;;;;5015234;28;20121;-74
2023/01/11 15:30:29;;;;;;;11.95;2.47;;;;;;;;;;5012275;28;20042;-75